sensor_id;sensor_type;location;lat;lon;timestamp;temperature;humidity
15409;DHT22;7803;48.130;13.788;2024-01-16T00:01:04;23.90;59.10
15409;DHT22;7803;48.130;13.788;2024-01-16T00:04:08;23.90;59.10
15409;DHT22;7803;48.130;13.788;2024-01-16T00:07:10;23.90;59.20
15409;DHT22;7803;48.130;13.788;2024-01-16T00:10:12;23.90;59.20
15409;DHT22;7803;48.130;13.788;2024-01-16T00:13:14;23.90;59.40
15409;DHT22;7803;48.130;13.788;2024-01-16T00:16:16;23.80;59.40
15409;DHT22;7803;48.130;13.788;2024-01-16T00:19:19;23.80;59.30
15409;DHT22;7803;48.130;13.788;2024-01-16T00:22:21;23.80;59.50
15409;DHT22;7803;48.130;13.788;2024-01-16T00:25:23;23.80;59.50
15409;DHT22;7803;48.130;13.788;2024-01-16T00:28:25;23.80;59.60
15409;DHT22;7803;48.130;13.788;2024-01-16T00:31:27;23.80;59.70
15409;DHT22;7803;48.130;13.788;2024-01-16T00:34:30;23.70;59.70
15409;DHT22;7803;48.130;13.788;2024-01-16T00:37:33;23.70;59.70
15409;DHT22;7803;48.130;13.788;2024-01-16T00:40:35;23.70;59.80
15409;DHT22;7803;48.130;13.788;2024-01-16T00:43:37;23.70;59.90
15409;DHT22;7803;48.130;13.788;2024-01-16T00:46:39;23.70;59.90
15409;DHT22;7803;48.130;13.788;2024-01-16T00:49:42;23.70;60.00
15409;DHT22;7803;48.130;13.788;2024-01-16T00:52:44;23.70;60.00
15409;DHT22;7803;48.130;13.788;2024-01-16T00:55:46;23.70;60.00
15409;DHT22;7803;48.130;13.788;2024-01-16T00:58:48;23.60;60.10
15409;DHT22;7803;48.130;13.788;2024-01-16T01:01:50;23.60;60.10
15409;DHT22;7803;48.130;13.788;2024-01-16T01:04:53;23.60;60.20
15409;DHT22;7803;48.130;13.788;2024-01-16T01:07:56;23.70;60.30
15409;DHT22;7803;48.130;13.788;2024-01-16T01:10:58;23.60;60.30
15409;DHT22;7803;48.130;13.788;2024-01-16T01:14:00;23.60;60.20
15409;DHT22;7803;48.130;13.788;2024-01-16T01:17:02;23.60;60.20
15409;DHT22;7803;48.130;13.788;2024-01-16T01:20:07;23.60;60.30
15409;DHT22;7803;48.130;13.788;2024-01-16T01:23:10;23.60;60.30
15409;DHT22;7803;48.130;13.788;2024-01-16T01:26:12;23.60;60.40
15409;DHT22;7803;48.130;13.788;2024-01-16T01:29:15;23.60;60.40
15409;DHT22;7803;48.130;13.788;2024-01-16T01:32:17;23.60;60.50
15409;DHT22;7803;48.130;13.788;2024-01-16T01:35:21;23.60;60.40
15409;DHT22;7803;48.130;13.788;2024-01-16T01:38:23;23.60;60.50
15409;DHT22;7803;48.130;13.788;2024-01-16T01:41:27;23.60;60.40
15409;DHT22;7803;48.130;13.788;2024-01-16T01:44:29;23.60;60.40
15409;DHT22;7803;48.130;13.788;2024-01-16T01:47:31;23.50;60.30
15409;DHT22;7803;48.130;13.788;2024-01-16T01:50:35;23.60;60.50
15409;DHT22;7803;48.130;13.788;2024-01-16T01:53:39;23.50;60.40
15409;DHT22;7803;48.130;13.788;2024-01-16T01:56:42;23.50;60.40
15409;DHT22;7803;48.130;13.788;2024-01-16T01:59:44;23.50;60.50
15409;DHT22;7803;48.130;13.788;2024-01-16T02:02:47;23.40;60.40
15409;DHT22;7803;48.130;13.788;2024-01-16T02:05:51;23.50;60.40
15409;DHT22;7803;48.130;13.788;2024-01-16T02:08:53;23.50;60.50
15409;DHT22;7803;48.130;13.788;2024-01-16T02:11:55;23.50;60.50
15409;DHT22;7803;48.130;13.788;2024-01-16T02:14:57;23.50;60.50
15409;DHT22;7803;48.130;13.788;2024-01-16T02:17:59;23.40;60.50
15409;DHT22;7803;48.130;13.788;2024-01-16T02:21:04;23.40;60.60
15409;DHT22;7803;48.130;13.788;2024-01-16T02:24:10;23.50;60.70
15409;DHT22;7803;48.130;13.788;2024-01-16T02:27:13;23.40;60.60
15409;DHT22;7803;48.130;13.788;2024-01-16T02:30:15;23.40;60.60
15409;DHT22;7803;48.130;13.788;2024-01-16T02:33:17;23.40;60.60
15409;DHT22;7803;48.130;13.788;2024-01-16T02:36:19;23.40;60.60
15409;DHT22;7803;48.130;13.788;2024-01-16T02:39:22;23.40;60.60
15409;DHT22;7803;48.130;13.788;2024-01-16T02:42:24;23.50;60.70
15409;DHT22;7803;48.130;13.788;2024-01-16T02:45:26;23.40;60.60
15409;DHT22;7803;48.130;13.788;2024-01-16T02:48:28;23.40;60.60
15409;DHT22;7803;48.130;13.788;2024-01-16T02:51:30;23.40;60.60
15409;DHT22;7803;48.130;13.788;2024-01-16T02:54:34;23.40;60.60
15409;DHT22;7803;48.130;13.788;2024-01-16T02:57:36;23.40;60.80
15409;DHT22;7803;48.130;13.788;2024-01-16T03:00:38;23.40;60.70
15409;DHT22;7803;48.130;13.788;2024-01-16T03:03:40;23.40;60.60
15409;DHT22;7803;48.130;13.788;2024-01-16T03:06:41;23.40;60.90
15409;DHT22;7803;48.130;13.788;2024-01-16T03:09:45;23.40;61.20
15409;DHT22;7803;48.130;13.788;2024-01-16T03:12:47;23.40;61.60
15409;DHT22;7803;48.130;13.788;2024-01-16T03:15:49;23.40;61.30
15409;DHT22;7803;48.130;13.788;2024-01-16T03:18:51;23.40;61.10
15409;DHT22;7803;48.130;13.788;2024-01-16T03:21:53;23.40;61.70
15409;DHT22;7803;48.130;13.788;2024-01-16T03:24:56;23.40;61.60
15409;DHT22;7803;48.130;13.788;2024-01-16T03:27:58;23.50;60.90
15409;DHT22;7803;48.130;13.788;2024-01-16T03:31:00;23.50;60.60
15409;DHT22;7803;48.130;13.788;2024-01-16T03:34:03;23.50;60.60
15409;DHT22;7803;48.130;13.788;2024-01-16T03:37:05;23.50;60.60
15409;DHT22;7803;48.130;13.788;2024-01-16T03:40:09;23.40;60.40
15409;DHT22;7803;48.130;13.788;2024-01-16T03:43:12;23.40;60.50
15409;DHT22;7803;48.130;13.788;2024-01-16T03:46:14;23.40;60.50
15409;DHT22;7803;48.130;13.788;2024-01-16T03:49:17;23.40;60.50
15409;DHT22;7803;48.130;13.788;2024-01-16T03:52:19;23.40;60.50
15409;DHT22;7803;48.130;13.788;2024-01-16T03:55:22;23.40;60.50
15409;DHT22;7803;48.130;13.788;2024-01-16T03:58:24;23.40;60.50
15409;DHT22;7803;48.130;13.788;2024-01-16T04:01:30;23.40;60.50
15409;DHT22;7803;48.130;13.788;2024-01-16T04:04:33;23.40;60.50
15409;DHT22;7803;48.130;13.788;2024-01-16T04:07:35;23.40;60.50
15409;DHT22;7803;48.130;13.788;2024-01-16T04:10:38;23.40;60.50
15409;DHT22;7803;48.130;13.788;2024-01-16T04:13:41;23.40;60.50
15409;DHT22;7803;48.130;13.788;2024-01-16T04:16:43;23.40;60.50
15409;DHT22;7803;48.130;13.788;2024-01-16T04:19:45;23.40;60.50
15409;DHT22;7803;48.130;13.788;2024-01-16T04:22:47;23.40;60.50
15409;DHT22;7803;48.130;13.788;2024-01-16T04:25:50;23.40;60.50
15409;DHT22;7803;48.130;13.788;2024-01-16T04:28:52;23.40;60.60
15409;DHT22;7803;48.130;13.788;2024-01-16T04:31:54;23.40;60.50
15409;DHT22;7803;48.130;13.788;2024-01-16T04:34:56;23.40;60.60
15409;DHT22;7803;48.130;13.788;2024-01-16T04:37:58;23.50;60.60
15409;DHT22;7803;48.130;13.788;2024-01-16T04:41:03;23.40;60.50
15409;DHT22;7803;48.130;13.788;2024-01-16T04:44:05;23.40;60.50
15409;DHT22;7803;48.130;13.788;2024-01-16T04:47:07;23.40;60.50
15409;DHT22;7803;48.130;13.788;2024-01-16T04:50:09;23.50;60.50
15409;DHT22;7803;48.130;13.788;2024-01-16T04:53:11;23.50;60.50
15409;DHT22;7803;48.130;13.788;2024-01-16T04:56:14;23.40;60.50
15409;DHT22;7803;48.130;13.788;2024-01-16T04:59:16;23.50;60.50
15409;DHT22;7803;48.130;13.788;2024-01-16T05:02:18;23.40;60.50
15409;DHT22;7803;48.130;13.788;2024-01-16T05:05:20;23.50;60.50
15409;DHT22;7803;48.130;13.788;2024-01-16T05:08:22;23.40;60.50
15409;DHT22;7803;48.130;13.788;2024-01-16T05:11:26;23.40;60.50
15409;DHT22;7803;48.130;13.788;2024-01-16T05:14:28;23.50;60.50
15409;DHT22;7803;48.130;13.788;2024-01-16T05:17:30;23.40;60.40
15409;DHT22;7803;48.130;13.788;2024-01-16T05:20:32;23.50;60.50
15409;DHT22;7803;48.130;13.788;2024-01-16T05:23:34;23.40;60.50
15409;DHT22;7803;48.130;13.788;2024-01-16T05:26:37;23.50;60.50
15409;DHT22;7803;48.130;13.788;2024-01-16T05:29:40;23.50;60.60
15409;DHT22;7803;48.130;13.788;2024-01-16T05:32:42;23.50;60.50
15409;DHT22;7803;48.130;13.788;2024-01-16T05:35:44;23.50;60.50
15409;DHT22;7803;48.130;13.788;2024-01-16T05:38:46;23.60;60.50
15409;DHT22;7803;48.130;13.788;2024-01-16T05:41:52;23.60;60.50
15409;DHT22;7803;48.130;13.788;2024-01-16T05:44:54;23.50;60.40
15409;DHT22;7803;48.130;13.788;2024-01-16T05:47:56;23.50;60.40
15409;DHT22;7803;48.130;13.788;2024-01-16T05:50:58;23.50;60.40
15409;DHT22;7803;48.130;13.788;2024-01-16T05:54:00;23.50;60.40
15409;DHT22;7803;48.130;13.788;2024-01-16T05:57:04;23.50;60.40
15409;DHT22;7803;48.130;13.788;2024-01-16T06:00:07;23.50;60.40
15409;DHT22;7803;48.130;13.788;2024-01-16T06:03:09;23.50;60.40
15409;DHT22;7803;48.130;13.788;2024-01-16T06:06:11;23.50;60.40
15409;DHT22;7803;48.130;13.788;2024-01-16T06:09:13;23.50;60.40
15409;DHT22;7803;48.130;13.788;2024-01-16T06:12:17;23.60;62.00
15409;DHT22;7803;48.130;13.788;2024-01-16T06:15:19;23.60;62.50
15409;DHT22;7803;48.130;13.788;2024-01-16T06:18:21;23.70;61.50
15409;DHT22;7803;48.130;13.788;2024-01-16T06:21:23;23.70;61.80
15409;DHT22;7803;48.130;13.788;2024-01-16T06:24:25;23.80;61.50
15409;DHT22;7803;48.130;13.788;2024-01-16T06:27:29;23.80;61.30
15409;DHT22;7803;48.130;13.788;2024-01-16T06:30:31;23.80;61.30
15409;DHT22;7803;48.130;13.788;2024-01-16T06:33:33;23.80;61.30
15409;DHT22;7803;48.130;13.788;2024-01-16T06:36:35;23.80;61.30
15409;DHT22;7803;48.130;13.788;2024-01-16T06:39:37;23.80;61.00
15409;DHT22;7803;48.130;13.788;2024-01-16T06:42:41;23.70;60.80
15409;DHT22;7803;48.130;13.788;2024-01-16T06:45:44;23.70;60.80
15409;DHT22;7803;48.130;13.788;2024-01-16T06:48:46;23.70;60.80
15409;DHT22;7803;48.130;13.788;2024-01-16T06:51:49;23.70;60.80
15409;DHT22;7803;48.130;13.788;2024-01-16T06:54:51;23.70;60.80
15409;DHT22;7803;48.130;13.788;2024-01-16T06:57:54;23.70;60.80
15409;DHT22;7803;48.130;13.788;2024-01-16T07:00:56;23.70;60.80
15409;DHT22;7803;48.130;13.788;2024-01-16T07:03:59;23.60;60.70
15409;DHT22;7803;48.130;13.788;2024-01-16T07:07:02;23.70;60.70
15409;DHT22;7803;48.130;13.788;2024-01-16T07:10:05;23.70;60.70
15409;DHT22;7803;48.130;13.788;2024-01-16T07:13:10;23.60;60.60
15409;DHT22;7803;48.130;13.788;2024-01-16T07:16:12;23.70;60.60
15409;DHT22;7803;48.130;13.788;2024-01-16T07:19:15;23.60;60.80
15409;DHT22;7803;48.130;13.788;2024-01-16T07:22:17;23.60;60.80
15409;DHT22;7803;48.130;13.788;2024-01-16T07:25:19;23.70;61.00
15409;DHT22;7803;48.130;13.788;2024-01-16T07:28:22;23.60;61.00
15409;DHT22;7803;48.130;13.788;2024-01-16T07:31:25;23.60;61.00
15409;DHT22;7803;48.130;13.788;2024-01-16T07:34:27;23.60;60.90
15409;DHT22;7803;48.130;13.788;2024-01-16T07:37:29;23.60;61.70
15409;DHT22;7803;48.130;13.788;2024-01-16T07:40:31;23.60;60.60
15409;DHT22;7803;48.130;13.788;2024-01-16T07:43:35;23.60;60.60
15409;DHT22;7803;48.130;13.788;2024-01-16T07:46:37;23.60;60.60
15409;DHT22;7803;48.130;13.788;2024-01-16T07:49:39;23.70;60.60
15409;DHT22;7803;48.130;13.788;2024-01-16T07:52:42;23.60;60.50
15409;DHT22;7803;48.130;13.788;2024-01-16T07:55:44;23.60;60.50
15409;DHT22;7803;48.130;13.788;2024-01-16T07:58:47;23.70;60.50
15409;DHT22;7803;48.130;13.788;2024-01-16T08:01:49;23.60;60.50
15409;DHT22;7803;48.130;13.788;2024-01-16T08:04:51;23.70;60.50
15409;DHT22;7803;48.130;13.788;2024-01-16T08:07:53;23.60;60.50
15409;DHT22;7803;48.130;13.788;2024-01-16T08:10:55;23.60;60.50
15409;DHT22;7803;48.130;13.788;2024-01-16T08:13:59;23.70;60.50
15409;DHT22;7803;48.130;13.788;2024-01-16T08:17:01;23.70;60.60
15409;DHT22;7803;48.130;13.788;2024-01-16T08:20:03;23.60;60.60
15409;DHT22;7803;48.130;13.788;2024-01-16T08:23:06;23.70;60.80
15409;DHT22;7803;48.130;13.788;2024-01-16T08:26:08;23.70;60.80
15409;DHT22;7803;48.130;13.788;2024-01-16T08:29:11;23.60;60.80
15409;DHT22;7803;48.130;13.788;2024-01-16T08:32:13;23.60;60.60
15409;DHT22;7803;48.130;13.788;2024-01-16T08:35:15;23.70;60.60
15409;DHT22;7803;48.130;13.788;2024-01-16T08:38:17;23.60;60.50
15409;DHT22;7803;48.130;13.788;2024-01-16T08:41:19;23.60;60.50
15409;DHT22;7803;48.130;13.788;2024-01-16T08:44:22;23.70;60.50
15409;DHT22;7803;48.130;13.788;2024-01-16T08:47:24;23.70;60.50
15409;DHT22;7803;48.130;13.788;2024-01-16T08:50:26;23.70;60.50
15409;DHT22;7803;48.130;13.788;2024-01-16T08:53:28;23.70;60.50
15409;DHT22;7803;48.130;13.788;2024-01-16T08:56:31;23.70;60.50
15409;DHT22;7803;48.130;13.788;2024-01-16T08:59:35;23.70;60.50
15409;DHT22;7803;48.130;13.788;2024-01-16T09:02:37;23.70;60.60
15409;DHT22;7803;48.130;13.788;2024-01-16T09:05:39;23.70;60.60
15409;DHT22;7803;48.130;13.788;2024-01-16T09:08:41;23.70;60.60
15409;DHT22;7803;48.130;13.788;2024-01-16T09:11:44;23.70;60.50
15409;DHT22;7803;48.130;13.788;2024-01-16T09:14:48;23.70;60.70
15409;DHT22;7803;48.130;13.788;2024-01-16T09:17:50;23.70;60.80
15409;DHT22;7803;48.130;13.788;2024-01-16T09:20:52;23.70;60.80
15409;DHT22;7803;48.130;13.788;2024-01-16T09:23:55;23.70;60.70
15409;DHT22;7803;48.130;13.788;2024-01-16T09:26:57;23.70;60.80
15409;DHT22;7803;48.130;13.788;2024-01-16T09:30:01;23.70;60.80
15409;DHT22;7803;48.130;13.788;2024-01-16T09:33:03;23.70;60.70
15409;DHT22;7803;48.130;13.788;2024-01-16T09:36:07;23.70;60.60
15409;DHT22;7803;48.130;13.788;2024-01-16T09:39:09;23.70;60.70
15409;DHT22;7803;48.130;13.788;2024-01-16T09:42:11;23.70;60.80
15409;DHT22;7803;48.130;13.788;2024-01-16T09:45:19;23.70;60.70
15409;DHT22;7803;48.130;13.788;2024-01-16T09:48:22;23.70;60.80
15409;DHT22;7803;48.130;13.788;2024-01-16T09:51:24;23.70;61.00
15409;DHT22;7803;48.130;13.788;2024-01-16T09:54:26;23.80;61.10
15409;DHT22;7803;48.130;13.788;2024-01-16T09:57:28;23.80;61.80
15409;DHT22;7803;48.130;13.788;2024-01-16T10:00:33;23.80;64.90
15409;DHT22;7803;48.130;13.788;2024-01-16T10:03:36;23.90;70.40
15409;DHT22;7803;48.130;13.788;2024-01-16T10:06:38;24.00;73.30
15409;DHT22;7803;48.130;13.788;2024-01-16T10:09:40;24.20;71.80
15409;DHT22;7803;48.130;13.788;2024-01-16T10:12:43;24.40;68.30
15409;DHT22;7803;48.130;13.788;2024-01-16T10:15:49;24.60;66.50
15409;DHT22;7803;48.130;13.788;2024-01-16T10:19:03;25.00;64.10
15409;DHT22;7803;48.130;13.788;2024-01-16T10:22:05;25.30;62.50
15409;DHT22;7803;48.130;13.788;2024-01-16T10:25:09;25.50;61.70
15409;DHT22;7803;48.130;13.788;2024-01-16T10:28:12;25.50;61.10
15409;DHT22;7803;48.130;13.788;2024-01-16T10:31:29;25.50;60.70
15409;DHT22;7803;48.130;13.788;2024-01-16T10:34:32;25.50;60.70
15409;DHT22;7803;48.130;13.788;2024-01-16T10:37:46;25.30;60.70
15409;DHT22;7803;48.130;13.788;2024-01-16T10:41:04;25.30;61.00
15409;DHT22;7803;48.130;13.788;2024-01-16T10:44:07;25.20;61.10
15409;DHT22;7803;48.130;13.788;2024-01-16T10:47:11;25.10;61.00
15409;DHT22;7803;48.130;13.788;2024-01-16T10:50:13;25.10;61.10
15409;DHT22;7803;48.130;13.788;2024-01-16T10:53:18;25.00;61.00
15409;DHT22;7803;48.130;13.788;2024-01-16T10:56:23;25.00;61.10
15409;DHT22;7803;48.130;13.788;2024-01-16T10:59:31;24.90;61.20
15409;DHT22;7803;48.130;13.788;2024-01-16T11:02:43;24.80;61.20
15409;DHT22;7803;48.130;13.788;2024-01-16T11:05:46;24.80;61.30
15409;DHT22;7803;48.130;13.788;2024-01-16T11:08:49;24.80;61.30
15409;DHT22;7803;48.130;13.788;2024-01-16T11:11:54;24.70;61.30
15409;DHT22;7803;48.130;13.788;2024-01-16T11:15:00;24.70;61.50
15409;DHT22;7803;48.130;13.788;2024-01-16T11:18:04;24.70;61.50
15409;DHT22;7803;48.130;13.788;2024-01-16T11:21:09;24.60;61.50
15409;DHT22;7803;48.130;13.788;2024-01-16T11:24:12;24.60;61.50
15409;DHT22;7803;48.130;13.788;2024-01-16T11:27:22;24.60;61.50
15409;DHT22;7803;48.130;13.788;2024-01-16T11:30:30;24.60;61.60
15409;DHT22;7803;48.130;13.788;2024-01-16T11:33:45;24.50;61.60
15409;DHT22;7803;48.130;13.788;2024-01-16T11:36:51;24.50;61.50
15409;DHT22;7803;48.130;13.788;2024-01-16T11:40:24;24.50;61.50
15409;DHT22;7803;48.130;13.788;2024-01-16T11:43:36;24.50;61.60
15409;DHT22;7803;48.130;13.788;2024-01-16T11:47:00;24.50;61.60
15409;DHT22;7803;48.130;13.788;2024-01-16T11:50:10;24.50;61.60
15409;DHT22;7803;48.130;13.788;2024-01-16T11:53:33;24.50;61.60
15409;DHT22;7803;48.130;13.788;2024-01-16T11:57:08;24.40;61.60
15409;DHT22;7803;48.130;13.788;2024-01-16T12:00:19;24.50;61.80
15409;DHT22;7803;48.130;13.788;2024-01-16T12:03:22;24.50;61.80
15409;DHT22;7803;48.130;13.788;2024-01-16T12:06:26;24.50;61.80
15409;DHT22;7803;48.130;13.788;2024-01-16T12:09:28;24.40;61.90
15409;DHT22;7803;48.130;13.788;2024-01-16T12:12:30;24.40;61.90
15409;DHT22;7803;48.130;13.788;2024-01-16T12:15:33;24.40;61.80
15409;DHT22;7803;48.130;13.788;2024-01-16T12:18:35;24.30;61.70
15409;DHT22;7803;48.130;13.788;2024-01-16T12:21:40;24.40;61.80
15409;DHT22;7803;48.130;13.788;2024-01-16T12:24:42;24.40;61.80
15409;DHT22;7803;48.130;13.788;2024-01-16T12:27:44;24.40;61.80
15409;DHT22;7803;48.130;13.788;2024-01-16T12:30:49;24.30;61.60
15409;DHT22;7803;48.130;13.788;2024-01-16T12:33:52;24.40;61.30
15409;DHT22;7803;48.130;13.788;2024-01-16T12:37:04;24.40;61.10
15409;DHT22;7803;48.130;13.788;2024-01-16T12:40:07;24.30;61.10
15409;DHT22;7803;48.130;13.788;2024-01-16T12:43:09;24.30;61.10
15409;DHT22;7803;48.130;13.788;2024-01-16T12:46:11;24.30;61.10
15409;DHT22;7803;48.130;13.788;2024-01-16T12:49:13;24.30;61.20
15409;DHT22;7803;48.130;13.788;2024-01-16T12:52:21;24.30;61.30
15409;DHT22;7803;48.130;13.788;2024-01-16T12:55:26;24.30;61.50
15409;DHT22;7803;48.130;13.788;2024-01-16T12:58:32;24.30;63.20
15409;DHT22;7803;48.130;13.788;2024-01-16T13:01:35;24.20;62.20
15409;DHT22;7803;48.130;13.788;2024-01-16T13:04:37;24.20;62.00
15409;DHT22;7803;48.130;13.788;2024-01-16T13:07:41;24.20;61.90
15409;DHT22;7803;48.130;13.788;2024-01-16T13:10:43;24.20;61.80
15409;DHT22;7803;48.130;13.788;2024-01-16T13:13:45;24.20;61.80
15409;DHT22;7803;48.130;13.788;2024-01-16T13:16:47;24.20;61.80
15409;DHT22;7803;48.130;13.788;2024-01-16T13:19:49;24.10;61.70
15409;DHT22;7803;48.130;13.788;2024-01-16T13:22:52;24.20;61.70
15409;DHT22;7803;48.130;13.788;2024-01-16T13:25:56;24.20;61.70
15409;DHT22;7803;48.130;13.788;2024-01-16T13:29:00;24.20;61.80
15409;DHT22;7803;48.130;13.788;2024-01-16T13:32:02;24.10;61.60
15409;DHT22;7803;48.130;13.788;2024-01-16T13:35:05;24.10;61.60
15409;DHT22;7803;48.130;13.788;2024-01-16T13:38:11;24.10;61.60
15409;DHT22;7803;48.130;13.788;2024-01-16T13:41:14;24.10;61.60
15409;DHT22;7803;48.130;13.788;2024-01-16T13:44:16;24.10;62.00
15409;DHT22;7803;48.130;13.788;2024-01-16T13:47:18;24.10;62.70
15409;DHT22;7803;48.130;13.788;2024-01-16T13:50:20;24.00;62.70
15409;DHT22;7803;48.130;13.788;2024-01-16T13:53:24;24.00;62.80
15409;DHT22;7803;48.130;13.788;2024-01-16T13:56:26;24.00;62.70
15409;DHT22;7803;48.130;13.788;2024-01-16T13:59:28;24.00;62.80
15409;DHT22;7803;48.130;13.788;2024-01-16T14:02:33;24.00;62.50
15409;DHT22;7803;48.130;13.788;2024-01-16T14:05:39;23.90;62.30
15409;DHT22;7803;48.130;13.788;2024-01-16T14:08:45;24.00;62.30
15409;DHT22;7803;48.130;13.788;2024-01-16T14:11:47;24.00;62.30
15409;DHT22;7803;48.130;13.788;2024-01-16T14:14:49;24.00;62.30
15409;DHT22;7803;48.130;13.788;2024-01-16T14:17:52;23.90;62.20
15409;DHT22;7803;48.130;13.788;2024-01-16T14:20:54;24.00;63.20
15409;DHT22;7803;48.130;13.788;2024-01-16T14:23:58;24.00;62.20
15409;DHT22;7803;48.130;13.788;2024-01-16T14:27:00;23.90;62.20
15409;DHT22;7803;48.130;13.788;2024-01-16T14:30:02;24.00;62.20
15409;DHT22;7803;48.130;13.788;2024-01-16T14:33:04;24.00;62.20
15409;DHT22;7803;48.130;13.788;2024-01-16T14:36:08;24.00;62.20
15409;DHT22;7803;48.130;13.788;2024-01-16T14:39:12;24.00;62.10
15409;DHT22;7803;48.130;13.788;2024-01-16T14:42:18;24.00;62.20
15409;DHT22;7803;48.130;13.788;2024-01-16T14:45:20;23.90;62.20
15409;DHT22;7803;48.130;13.788;2024-01-16T14:48:22;23.90;62.40
15409;DHT22;7803;48.130;13.788;2024-01-16T14:51:24;23.90;62.50
15409;DHT22;7803;48.130;13.788;2024-01-16T14:54:28;23.90;62.50
15409;DHT22;7803;48.130;13.788;2024-01-16T14:57:31;23.90;62.50
15409;DHT22;7803;48.130;13.788;2024-01-16T15:00:38;23.90;63.00
15409;DHT22;7803;48.130;13.788;2024-01-16T15:03:41;23.90;62.80
15409;DHT22;7803;48.130;13.788;2024-01-16T15:06:43;23.90;62.70
15409;DHT22;7803;48.130;13.788;2024-01-16T15:09:46;23.90;62.60
15409;DHT22;7803;48.130;13.788;2024-01-16T15:12:49;23.90;62.50
15409;DHT22;7803;48.130;13.788;2024-01-16T15:15:52;23.90;62.60
15409;DHT22;7803;48.130;13.788;2024-01-16T15:18:55;23.90;62.60
15409;DHT22;7803;48.130;13.788;2024-01-16T15:21:57;23.90;62.60
15409;DHT22;7803;48.130;13.788;2024-01-16T15:25:00;23.80;62.50
15409;DHT22;7803;48.130;13.788;2024-01-16T15:28:03;23.90;62.60
15409;DHT22;7803;48.130;13.788;2024-01-16T15:31:05;23.90;62.60
15409;DHT22;7803;48.130;13.788;2024-01-16T15:34:07;23.90;62.60
15409;DHT22;7803;48.130;13.788;2024-01-16T15:37:09;23.90;62.70
15409;DHT22;7803;48.130;13.788;2024-01-16T15:40:13;23.90;62.60
15409;DHT22;7803;48.130;13.788;2024-01-16T15:43:16;23.90;62.60
15409;DHT22;7803;48.130;13.788;2024-01-16T15:46:19;23.90;62.50
15409;DHT22;7803;48.130;13.788;2024-01-16T15:49:21;23.90;62.50
15409;DHT22;7803;48.130;13.788;2024-01-16T15:52:23;23.90;62.50
15409;DHT22;7803;48.130;13.788;2024-01-16T15:55:26;23.80;62.40
15409;DHT22;7803;48.130;13.788;2024-01-16T15:58:28;23.80;62.40
15409;DHT22;7803;48.130;13.788;2024-01-16T16:01:32;23.80;62.40
15409;DHT22;7803;48.130;13.788;2024-01-16T16:04:35;23.90;62.50
15409;DHT22;7803;48.130;13.788;2024-01-16T16:07:37;23.90;62.50
15409;DHT22;7803;48.130;13.788;2024-01-16T16:10:41;23.80;62.40
15409;DHT22;7803;48.130;13.788;2024-01-16T16:13:43;23.80;62.30
15409;DHT22;7803;48.130;13.788;2024-01-16T16:16:48;23.80;62.30
15409;DHT22;7803;48.130;13.788;2024-01-16T16:19:50;23.80;62.30
15409;DHT22;7803;48.130;13.788;2024-01-16T16:22:53;23.90;62.40
15409;DHT22;7803;48.130;13.788;2024-01-16T16:25:57;23.90;62.30
15409;DHT22;7803;48.130;13.788;2024-01-16T16:29:00;23.90;62.30
15409;DHT22;7803;48.130;13.788;2024-01-16T16:32:03;23.90;62.20
15409;DHT22;7803;48.130;13.788;2024-01-16T16:35:05;23.90;62.20
15409;DHT22;7803;48.130;13.788;2024-01-16T16:38:07;23.90;62.20
15409;DHT22;7803;48.130;13.788;2024-01-16T16:41:11;23.90;62.10
15409;DHT22;7803;48.130;13.788;2024-01-16T16:44:14;23.90;62.10
15409;DHT22;7803;48.130;13.788;2024-01-16T16:47:16;23.90;62.10
15409;DHT22;7803;48.130;13.788;2024-01-16T16:50:19;23.90;62.20
15409;DHT22;7803;48.130;13.788;2024-01-16T16:53:21;23.90;63.00
15409;DHT22;7803;48.130;13.788;2024-01-16T16:56:24;23.90;62.20
15409;DHT22;7803;48.130;13.788;2024-01-16T16:59:26;23.80;62.10
15409;DHT22;7803;48.130;13.788;2024-01-16T17:02:28;23.90;62.10
15409;DHT22;7803;48.130;13.788;2024-01-16T17:05:30;23.80;62.00
15409;DHT22;7803;48.130;13.788;2024-01-16T17:08:32;23.90;62.20
15409;DHT22;7803;48.130;13.788;2024-01-16T17:11:38;23.80;62.00
15409;DHT22;7803;48.130;13.788;2024-01-16T17:14:40;23.90;62.10
15409;DHT22;7803;48.130;13.788;2024-01-16T17:17:42;23.80;62.10
15409;DHT22;7803;48.130;13.788;2024-01-16T17:20:45;23.90;62.10
15409;DHT22;7803;48.130;13.788;2024-01-16T17:23:47;23.90;62.00
15409;DHT22;7803;48.130;13.788;2024-01-16T17:26:50;23.90;61.90
15409;DHT22;7803;48.130;13.788;2024-01-16T17:29:52;23.90;61.80
15409;DHT22;7803;48.130;13.788;2024-01-16T17:32:54;23.90;61.80
15409;DHT22;7803;48.130;13.788;2024-01-16T17:35:57;23.90;61.80
15409;DHT22;7803;48.130;13.788;2024-01-16T17:39:00;23.90;61.80
15409;DHT22;7803;48.130;13.788;2024-01-16T17:42:04;23.90;61.80
15409;DHT22;7803;48.130;13.788;2024-01-16T17:45:08;23.90;61.80
15409;DHT22;7803;48.130;13.788;2024-01-16T17:48:10;23.90;61.80
15409;DHT22;7803;48.130;13.788;2024-01-16T17:51:12;23.80;61.70
15409;DHT22;7803;48.130;13.788;2024-01-16T17:54:14;23.80;61.80
15409;DHT22;7803;48.130;13.788;2024-01-16T17:57:17;23.90;61.80
15409;DHT22;7803;48.130;13.788;2024-01-16T18:00:19;23.80;61.70
15409;DHT22;7803;48.130;13.788;2024-01-16T18:03:23;23.80;61.70
15409;DHT22;7803;48.130;13.788;2024-01-16T18:06:28;23.90;61.80
15409;DHT22;7803;48.130;13.788;2024-01-16T18:09:30;23.90;61.80
15409;DHT22;7803;48.130;13.788;2024-01-16T18:12:37;23.90;61.80
15409;DHT22;7803;48.130;13.788;2024-01-16T18:15:39;23.90;61.80
15409;DHT22;7803;48.130;13.788;2024-01-16T18:18:42;23.90;61.70
15409;DHT22;7803;48.130;13.788;2024-01-16T18:21:44;23.90;61.70
15409;DHT22;7803;48.130;13.788;2024-01-16T18:24:46;23.90;61.60
15409;DHT22;7803;48.130;13.788;2024-01-16T18:27:49;23.90;61.60
15409;DHT22;7803;48.130;13.788;2024-01-16T18:30:53;23.90;61.60
15409;DHT22;7803;48.130;13.788;2024-01-16T18:33:56;23.90;62.40
15409;DHT22;7803;48.130;13.788;2024-01-16T18:36:58;23.90;61.50
15409;DHT22;7803;48.130;13.788;2024-01-16T18:40:00;23.90;61.50
15409;DHT22;7803;48.130;13.788;2024-01-16T18:43:04;23.90;61.50
15409;DHT22;7803;48.130;13.788;2024-01-16T18:46:08;23.90;61.50
15409;DHT22;7803;48.130;13.788;2024-01-16T18:49:10;23.90;61.50
15409;DHT22;7803;48.130;13.788;2024-01-16T18:52:14;23.90;61.50
15409;DHT22;7803;48.130;13.788;2024-01-16T18:55:17;23.90;61.50
15409;DHT22;7803;48.130;13.788;2024-01-16T18:58:20;23.90;61.60
15409;DHT22;7803;48.130;13.788;2024-01-16T19:01:22;23.90;61.60
15409;DHT22;7803;48.130;13.788;2024-01-16T19:04:29;23.90;61.80
15409;DHT22;7803;48.130;13.788;2024-01-16T19:07:33;23.90;61.80
15409;DHT22;7803;48.130;13.788;2024-01-16T19:10:35;23.90;61.80
15409;DHT22;7803;48.130;13.788;2024-01-16T19:13:39;23.90;61.70
15409;DHT22;7803;48.130;13.788;2024-01-16T19:16:41;24.00;61.80